sensor_id;sensor_type;location;lat;lon;timestamp;pressure;altitude;pressure_sealevel;temperature;humidity
50011;BME280;35899;50.352;19.390;2023-07-30T00:00:14;97165.05;;;19.42;83.15
50011;BME280;35899;50.352;19.390;2023-07-30T00:03:07;97162.66;;;19.44;83.46
50011;BME280;35899;50.352;19.390;2023-07-30T00:05:34;97155.60;;;19.48;83.72
50011;BME280;35899;50.352;19.390;2023-07-30T00:08:10;97145.64;;;19.50;83.81
50011;BME280;35899;50.352;19.390;2023-07-30T00:10:40;97150.33;;;19.52;84.01
50011;BME280;35899;50.352;19.390;2023-07-30T00:13:10;97148.58;;;19.52;83.87
50011;BME280;35899;50.352;19.390;2023-07-30T00:15:40;97150.33;;;19.52;84.03
50011;BME280;35899;50.352;19.390;2023-07-30T00:18:15;97148.41;;;19.52;84.16
50011;BME280;35899;50.352;19.390;2023-07-30T00:20:47;97153.08;;;19.51;84.22
50011;BME280;35899;50.352;19.390;2023-07-30T00:23:14;97154.06;;;19.53;84.42
50011;BME280;35899;50.352;19.390;2023-07-30T00:25:43;97152.10;;;19.55;84.47
50011;BME280;35899;50.352;19.390;2023-07-30T00:28:18;97152.20;;;19.57;84.60
50011;BME280;35899;50.352;19.390;2023-07-30T00:30:54;97152.34;;;19.59;84.64
50011;BME280;35899;50.352;19.390;2023-07-30T00:36:02;97161.06;;;19.60;84.91
50011;BME280;35899;50.352;19.390;2023-07-30T00:38:29;97167.14;;;19.60;84.92
50011;BME280;35899;50.352;19.390;2023-07-30T00:40:59;97167.48;;;19.59;84.91
50011;BME280;35899;50.352;19.390;2023-07-30T00:43:31;97170.59;;;19.58;85.03
50011;BME280;35899;50.352;19.390;2023-07-30T00:45:58;97162.91;;;19.59;85.21
50011;BME280;35899;50.352;19.390;2023-07-30T00:48:26;97152.56;;;19.60;85.29
50011;BME280;35899;50.352;19.390;2023-07-30T00:51:03;97154.05;;;19.62;85.33
50011;BME280;35899;50.352;19.390;2023-07-30T00:56:34;97170.39;;;19.67;85.55
50011;BME280;35899;50.352;19.390;2023-07-30T00:59:01;97171.62;;;19.65;85.40
50011;BME280;35899;50.352;19.390;2023-07-30T01:01:50;97169.39;;;19.65;85.54
50011;BME280;35899;50.352;19.390;2023-07-30T01:06:54;97170.96;;;19.62;85.44
50011;BME280;35899;50.352;19.390;2023-07-30T01:09:24;97171.34;;;19.59;85.39
50011;BME280;35899;50.352;19.390;2023-07-30T01:11:54;97176.02;;;19.54;85.37
50011;BME280;35899;50.352;19.390;2023-07-30T01:17:13;97179.56;;;19.47;85.41
50011;BME280;35899;50.352;19.390;2023-07-30T01:20:01;97180.34;;;19.43;85.35
50011;BME280;35899;50.352;19.390;2023-07-30T01:22:40;97187.16;;;19.39;85.28
50011;BME280;35899;50.352;19.390;2023-07-30T01:25:07;97187.74;;;19.35;85.28
50011;BME280;35899;50.352;19.390;2023-07-30T01:27:36;97191.80;;;19.34;85.25
50011;BME280;35899;50.352;19.390;2023-07-30T01:30:22;97194.40;;;19.28;85.19
50011;BME280;35899;50.352;19.390;2023-07-30T01:32:59;97200.69;;;19.25;85.42
50011;BME280;35899;50.352;19.390;2023-07-30T01:35:27;97192.58;;;19.23;85.50
50011;BME280;35899;50.352;19.390;2023-07-30T01:37:58;97197.20;;;19.19;85.38
50011;BME280;35899;50.352;19.390;2023-07-30T01:40:25;97199.00;;;19.13;85.26
50011;BME280;35899;50.352;19.390;2023-07-30T01:42:54;97199.42;;;19.08;85.32
50011;BME280;35899;50.352;19.390;2023-07-30T01:45:21;97202.61;;;19.03;85.53
50011;BME280;35899;50.352;19.390;2023-07-30T01:47:48;97203.84;;;19.01;85.66
50011;BME280;35899;50.352;19.390;2023-07-30T01:50:15;97208.11;;;18.99;85.81
50011;BME280;35899;50.352;19.390;2023-07-30T01:52:42;97207.46;;;18.97;86.03
50011;BME280;35899;50.352;19.390;2023-07-30T01:55:09;97214.91;;;18.95;85.86
50011;BME280;35899;50.352;19.390;2023-07-30T01:57:35;97218.87;;;18.90;85.97
50011;BME280;35899;50.352;19.390;2023-07-30T02:00:02;97220.88;;;18.86;86.09
50011;BME280;35899;50.352;19.390;2023-07-30T02:02:29;97220.95;;;18.81;86.08
50011;BME280;35899;50.352;19.390;2023-07-30T02:04:56;97223.77;;;18.75;86.16
50011;BME280;35899;50.352;19.390;2023-07-30T02:07:23;97228.69;;;18.71;86.22
50011;BME280;35899;50.352;19.390;2023-07-30T02:09:50;97228.39;;;18.66;86.28
50011;BME280;35899;50.352;19.390;2023-07-30T02:12:20;97228.88;;;18.63;86.46
50011;BME280;35899;50.352;19.390;2023-07-30T02:14:47;97223.61;;;18.60;86.56
50011;BME280;35899;50.352;19.390;2023-07-30T02:17:14;97229.27;;;18.55;86.53
50011;BME280;35899;50.352;19.390;2023-07-30T02:19:55;97227.85;;;18.51;86.65
50011;BME280;35899;50.352;19.390;2023-07-30T02:22:23;97223.75;;;18.45;86.52
50011;BME280;35899;50.352;19.390;2023-07-30T02:24:50;97220.84;;;18.39;86.58
50011;BME280;35899;50.352;19.390;2023-07-30T02:27:19;97221.77;;;18.33;86.62
50011;BME280;35899;50.352;19.390;2023-07-30T02:29:49;97226.74;;;18.28;86.77
50011;BME280;35899;50.352;19.390;2023-07-30T02:32:16;97227.76;;;18.24;86.81
50011;BME280;35899;50.352;19.390;2023-07-30T02:34:42;97227.29;;;18.20;86.99
50011;BME280;35899;50.352;19.390;2023-07-30T02:37:12;97227.94;;;18.16;87.07
50011;BME280;35899;50.352;19.390;2023-07-30T02:39:39;97228.11;;;18.13;87.11
50011;BME280;35899;50.352;19.390;2023-07-30T02:42:05;97229.08;;;18.10;87.22
50011;BME280;35899;50.352;19.390;2023-07-30T02:44:37;97227.89;;;18.07;87.17
50011;BME280;35899;50.352;19.390;2023-07-30T02:47:10;97231.12;;;18.01;87.18
50011;BME280;35899;50.352;19.390;2023-07-30T02:49:38;97230.79;;;17.96;87.29
50011;BME280;35899;50.352;19.390;2023-07-30T02:52:05;97227.52;;;17.93;87.44
50011;BME280;35899;50.352;19.390;2023-07-30T02:54:32;97220.56;;;17.91;87.60
50011;BME280;35899;50.352;19.390;2023-07-30T02:56:59;97218.95;;;17.88;87.68
50011;BME280;35899;50.352;19.390;2023-07-30T02:59:25;97218.52;;;17.84;87.74
50011;BME280;35899;50.352;19.390;2023-07-30T03:02:12;97217.66;;;17.74;87.46
50011;BME280;35899;50.352;19.390;2023-07-30T03:04:42;97220.94;;;17.67;87.67
50011;BME280;35899;50.352;19.390;2023-07-30T03:09:49;97225.20;;;17.58;88.09
50011;BME280;35899;50.352;19.390;2023-07-30T03:12:15;97226.88;;;17.57;88.31
50011;BME280;35899;50.352;19.390;2023-07-30T03:14:42;97233.53;;;17.55;88.34
50011;BME280;35899;50.352;19.390;2023-07-30T03:17:09;97232.63;;;17.53;88.40
50011;BME280;35899;50.352;19.390;2023-07-30T03:19:36;97232.34;;;17.52;88.60
50011;BME280;35899;50.352;19.390;2023-07-30T03:22:03;97231.73;;;17.53;88.75
50011;BME280;35899;50.352;19.390;2023-07-30T03:24:34;97233.73;;;17.55;88.90
50011;BME280;35899;50.352;19.390;2023-07-30T03:27:01;97234.13;;;17.58;88.96
50011;BME280;35899;50.352;19.390;2023-07-30T03:29:28;97230.42;;;17.62;88.99
50011;BME280;35899;50.352;19.390;2023-07-30T03:32:05;97232.38;;;17.66;89.01
50011;BME280;35899;50.352;19.390;2023-07-30T03:34:31;97235.89;;;17.71;89.05
50011;BME280;35899;50.352;19.390;2023-07-30T03:36:58;97235.80;;;17.76;88.92
50011;BME280;35899;50.352;19.390;2023-07-30T03:39:30;97235.92;;;17.80;88.96
50011;BME280;35899;50.352;19.390;2023-07-30T03:41:56;97231.55;;;17.83;88.87
50011;BME280;35899;50.352;19.390;2023-07-30T03:44:23;97234.48;;;17.87;88.76
50011;BME280;35899;50.352;19.390;2023-07-30T03:46:50;97243.98;;;17.90;88.60
50011;BME280;35899;50.352;19.390;2023-07-30T03:49:26;97253.07;;;17.90;88.44
50011;BME280;35899;50.352;19.390;2023-07-30T03:51:54;97260.02;;;17.87;88.33
50011;BME280;35899;50.352;19.390;2023-07-30T03:54:29;97264.34;;;17.88;88.34
50011;BME280;35899;50.352;19.390;2023-07-30T03:56:56;97268.92;;;17.87;88.29
50011;BME280;35899;50.352;19.390;2023-07-30T03:59:23;97268.77;;;17.87;88.23
50011;BME280;35899;50.352;19.390;2023-07-30T04:01:49;97271.73;;;17.85;88.13
50011;BME280;35899;50.352;19.390;2023-07-30T04:04:16;97270.58;;;17.87;88.35
50011;BME280;35899;50.352;19.390;2023-07-30T04:06:43;97271.86;;;17.89;88.46
50011;BME280;35899;50.352;19.390;2023-07-30T04:09:10;97276.10;;;17.89;88.45
50011;BME280;35899;50.352;19.390;2023-07-30T04:11:37;97276.86;;;17.87;87.95
50011;BME280;35899;50.352;19.390;2023-07-30T04:14:04;97273.27;;;17.86;87.96
50011;BME280;35899;50.352;19.390;2023-07-30T04:16:31;97278.45;;;17.88;88.03
50011;BME280;35899;50.352;19.390;2023-07-30T04:18:58;97273.74;;;17.90;88.02
50011;BME280;35899;50.352;19.390;2023-07-30T04:21:25;97272.67;;;17.93;88.17
50011;BME280;35899;50.352;19.390;2023-07-30T04:23:52;97273.66;;;17.95;88.06
50011;BME280;35899;50.352;19.390;2023-07-30T04:26:19;97276.44;;;17.97;87.99
50011;BME280;35899;50.352;19.390;2023-07-30T04:28:46;97277.64;;;18.02;88.05
50011;BME280;35899;50.352;19.390;2023-07-30T04:31:13;97271.80;;;18.06;87.84
50011;BME280;35899;50.352;19.390;2023-07-30T04:33:41;97275.73;;;18.05;87.28
50011;BME280;35899;50.352;19.390;2023-07-30T04:36:07;97271.15;;;18.07;87.31
50011;BME280;35899;50.352;19.390;2023-07-30T04:38:34;97267.85;;;18.10;87.21
50011;BME280;35899;50.352;19.390;2023-07-30T04:41:01;97275.27;;;18.11;87.07
50011;BME280;35899;50.352;19.390;2023-07-30T04:43:30;97277.98;;;18.13;87.25
50011;BME280;35899;50.352;19.390;2023-07-30T04:46:00;97284.33;;;18.17;87.42
50011;BME280;35899;50.352;19.390;2023-07-30T04:48:30;97281.29;;;18.19;87.41
50011;BME280;35899;50.352;19.390;2023-07-30T04:50:57;97279.92;;;18.24;87.35
50011;BME280;35899;50.352;19.390;2023-07-30T04:53:28;97283.71;;;18.29;87.32
50011;BME280;35899;50.352;19.390;2023-07-30T04:55:56;97282.10;;;18.34;87.27
50011;BME280;35899;50.352;19.390;2023-07-30T04:58:22;97282.71;;;18.45;87.50
50011;BME280;35899;50.352;19.390;2023-07-30T05:00:52;97282.00;;;18.58;87.42
50011;BME280;35899;50.352;19.390;2023-07-30T05:03:22;97277.23;;;18.74;87.06
50011;BME280;35899;50.352;19.390;2023-07-30T05:05:49;97277.06;;;18.96;87.05
50011;BME280;35899;50.352;19.390;2023-07-30T05:08:16;97276.30;;;19.13;86.82
50011;BME280;35899;50.352;19.390;2023-07-30T05:10:43;97279.41;;;19.24;86.17
50011;BME280;35899;50.352;19.390;2023-07-30T05:13:10;97278.95;;;19.30;85.75
50011;BME280;35899;50.352;19.390;2023-07-30T05:15:40;97282.02;;;19.39;85.51
50011;BME280;35899;50.352;19.390;2023-07-30T05:18:09;97283.44;;;19.48;85.17
50011;BME280;35899;50.352;19.390;2023-07-30T05:20:36;97290.77;;;19.56;84.95
50011;BME280;35899;50.352;19.390;2023-07-30T05:23:03;97291.71;;;19.60;84.58
50011;BME280;35899;50.352;19.390;2023-07-30T05:25:30;97293.45;;;19.68;84.58
50011;BME280;35899;50.352;19.390;2023-07-30T05:27:57;97296.75;;;19.77;84.68
50011;BME280;35899;50.352;19.390;2023-07-30T05:30:26;97303.87;;;19.90;84.41
50011;BME280;35899;50.352;19.390;2023-07-30T05:32:56;97305.84;;;20.02;83.96
50011;BME280;35899;50.352;19.390;2023-07-30T05:35:25;97304.88;;;20.05;83.19
50011;BME280;35899;50.352;19.390;2023-07-30T05:37:52;97309.86;;;20.12;82.99
50011;BME280;35899;50.352;19.390;2023-07-30T05:40:20;97315.34;;;20.22;82.77
50011;BME280;35899;50.352;19.390;2023-07-30T05:42:47;97311.00;;;20.29;81.98
50011;BME280;35899;50.352;19.390;2023-07-30T05:45:16;97311.27;;;20.34;81.68
50011;BME280;35899;50.352;19.390;2023-07-30T05:47:44;97314.04;;;20.41;81.25
50011;BME280;35899;50.352;19.390;2023-07-30T05:50:31;97320.17;;;20.59;80.90
50011;BME280;35899;50.352;19.390;2023-07-30T05:53:01;97319.97;;;20.73;80.34
50011;BME280;35899;50.352;19.390;2023-07-30T05:55:28;97323.63;;;20.78;79.37
50011;BME280;35899;50.352;19.390;2023-07-30T05:57:58;97325.95;;;20.86;79.06
50011;BME280;35899;50.352;19.390;2023-07-30T06:00:25;97326.02;;;20.91;78.23
50011;BME280;35899;50.352;19.390;2023-07-30T06:02:52;97316.69;;;20.95;77.91
50011;BME280;35899;50.352;19.390;2023-07-30T06:08:18;97323.42;;;20.98;76.97
50011;BME280;35899;50.352;19.390;2023-07-30T06:10:50;97319.20;;;21.02;76.81
50011;BME280;35899;50.352;19.390;2023-07-30T06:16:40;97318.14;;;21.11;75.80
50011;BME280;35899;50.352;19.390;2023-07-30T06:22:00;97318.91;;;21.36;75.41
50011;BME280;35899;50.352;19.390;2023-07-30T06:24:36;97318.25;;;21.38;74.89
50011;BME280;35899;50.352;19.390;2023-07-30T06:27:14;97314.56;;;21.41;74.51
50011;BME280;35899;50.352;19.390;2023-07-30T06:30:07;97313.03;;;21.49;74.35
50011;BME280;35899;50.352;19.390;2023-07-30T06:32:44;97317.14;;;21.55;74.01
50011;BME280;35899;50.352;19.390;2023-07-30T06:35:17;97315.05;;;21.57;73.76
50011;BME280;35899;50.352;19.390;2023-07-30T06:37:58;97310.96;;;21.60;73.73
50011;BME280;35899;50.352;19.390;2023-07-30T06:40:40;97312.23;;;21.67;73.78
50011;BME280;35899;50.352;19.390;2023-07-30T06:43:12;97314.42;;;21.81;73.98
50011;BME280;35899;50.352;19.390;2023-07-30T06:46:19;97319.63;;;21.87;72.63
50011;BME280;35899;50.352;19.390;2023-07-30T06:49:00;97321.77;;;21.88;72.48
50011;BME280;35899;50.352;19.390;2023-07-30T06:51:41;97325.08;;;21.95;72.14
50011;BME280;35899;50.352;19.390;2023-07-30T06:54:32;97322.19;;;22.04;71.78
50011;BME280;35899;50.352;19.390;2023-07-30T06:57:32;97323.82;;;22.19;72.13
50011;BME280;35899;50.352;19.390;2023-07-30T07:00:02;97319.79;;;22.42;72.49
50011;BME280;35899;50.352;19.390;2023-07-30T07:02:36;97321.36;;;22.59;71.51
50011;BME280;35899;50.352;19.390;2023-07-30T07:05:26;97318.15;;;22.63;70.19
50011;BME280;35899;50.352;19.390;2023-07-30T07:08:01;97319.33;;;22.64;70.30
50011;BME280;35899;50.352;19.390;2023-07-30T07:10:48;97319.16;;;22.75;70.08
50011;BME280;35899;50.352;19.390;2023-07-30T07:16:28;97316.05;;;22.89;69.30
50011;BME280;35899;50.352;19.390;2023-07-30T07:22:19;97319.83;;;23.09;69.06
50011;BME280;35899;50.352;19.390;2023-07-30T07:25:26;97330.37;;;23.17;69.14
50011;BME280;35899;50.352;19.390;2023-07-30T07:28:26;97332.01;;;23.28;69.05
50011;BME280;35899;50.352;19.390;2023-07-30T07:31:24;97329.20;;;23.34;68.71
50011;BME280;35899;50.352;19.390;2023-07-30T07:37:25;97328.95;;;23.40;68.08
50011;BME280;35899;50.352;19.390;2023-07-30T07:43:14;97335.06;;;23.57;67.60
50011;BME280;35899;50.352;19.390;2023-07-30T07:49:10;97330.11;;;23.76;66.12
50011;BME280;35899;50.352;19.390;2023-07-30T07:55:00;97326.39;;;23.95;66.34
50011;BME280;35899;50.352;19.390;2023-07-30T08:04:06;97317.16;;;24.59;64.62
50011;BME280;35899;50.352;19.390;2023-07-30T08:10:13;97319.98;;;24.86;63.75
50011;BME280;35899;50.352;19.390;2023-07-30T08:13:20;97323.70;;;24.94;62.87
50011;BME280;35899;50.352;19.390;2023-07-30T08:19:34;97324.43;;;25.11;62.16
50011;BME280;35899;50.352;19.390;2023-07-30T08:22:41;97325.05;;;25.26;62.02
50011;BME280;35899;50.352;19.390;2023-07-30T08:31:47;97328.86;;;25.86;61.42
50011;BME280;35899;50.352;19.390;2023-07-30T08:37:52;97333.73;;;26.08;59.07
50011;BME280;35899;50.352;19.390;2023-07-30T08:53:21;97356.10;;;26.55;57.06
50011;BME280;35899;50.352;19.390;2023-07-30T08:56:22;97354.71;;;26.59;56.19
50011;BME280;35899;50.352;19.390;2023-07-30T08:59:29;97352.59;;;26.76;56.40
50011;BME280;35899;50.352;19.390;2023-07-30T09:05:46;97354.73;;;27.24;55.15
50011;BME280;35899;50.352;19.390;2023-07-30T09:08:53;97355.52;;;27.25;53.95
50011;BME280;35899;50.352;19.390;2023-07-30T09:15:09;97352.67;;;27.57;52.98
50011;BME280;35899;50.352;19.390;2023-07-30T09:21:29;97354.83;;;27.80;51.50
50011;BME280;35899;50.352;19.390;2023-07-30T09:30:34;97347.31;;;27.61;50.43
50011;BME280;35899;50.352;19.390;2023-07-30T09:36:47;97347.16;;;27.23;50.75
50011;BME280;35899;50.352;19.390;2023-07-30T09:46:05;97346.27;;;27.39;50.66
50011;BME280;35899;50.352;19.390;2023-07-30T09:49:12;97337.95;;;27.59;49.90
50011;BME280;35899;50.352;19.390;2023-07-30T09:52:12;97334.20;;;27.80;49.82
50011;BME280;35899;50.352;19.390;2023-07-30T09:55:19;97332.99;;;27.94;48.91
50011;BME280;35899;50.352;19.390;2023-07-30T09:58:26;97334.69;;;28.05;48.54
50011;BME280;35899;50.352;19.390;2023-07-30T10:10:36;97331.42;;;28.34;47.23
50011;BME280;35899;50.352;19.390;2023-07-30T10:13:43;97333.08;;;28.65;47.26
50011;BME280;35899;50.352;19.390;2023-07-30T10:16:51;97333.54;;;28.97;46.73
50011;BME280;35899;50.352;19.390;2023-07-30T10:23:05;97325.77;;;29.16;45.70
50011;BME280;35899;50.352;19.390;2023-07-30T10:39:10;97333.96;;;28.99;45.12
50011;BME280;35899;50.352;19.390;2023-07-30T10:42:17;97327.94;;;28.88;44.08
50011;BME280;35899;50.352;19.390;2023-07-30T10:45:24;97325.13;;;28.68;44.68
50011;BME280;35899;50.352;19.390;2023-07-30T10:51:39;97321.86;;;28.82;45.15
50011;BME280;35899;50.352;19.390;2023-07-30T10:54:47;97320.57;;;29.03;45.08
50011;BME280;35899;50.352;19.390;2023-07-30T10:57:54;97314.88;;;29.23;44.61
50011;BME280;35899;50.352;19.390;2023-07-30T11:04:02;97315.26;;;29.20;43.89
50011;BME280;35899;50.352;19.390;2023-07-30T11:13:26;97320.38;;;29.35;44.39
50011;BME280;35899;50.352;19.390;2023-07-30T11:16:34;97316.73;;;29.60;44.51
50011;BME280;35899;50.352;19.390;2023-07-30T11:38:31;97313.70;;;29.57;42.45
50011;BME280;35899;50.352;19.390;2023-07-30T11:41:38;97312.71;;;29.49;42.50
50011;BME280;35899;50.352;19.390;2023-07-30T12:00:27;97303.85;;;29.86;42.91
50011;BME280;35899;50.352;19.390;2023-07-30T12:06:17;97302.84;;;29.57;41.91
50011;BME280;35899;50.352;19.390;2023-07-30T12:22:09;97306.64;;;29.53;43.31
50011;BME280;35899;50.352;19.390;2023-07-30T12:25:16;97304.65;;;29.57;42.89
50011;BME280;35899;50.352;19.390;2023-07-30T12:31:31;97305.16;;;29.44;43.31
50011;BME280;35899;50.352;19.390;2023-07-30T12:40:45;97296.13;;;28.93;43.21
50011;BME280;35899;50.352;19.390;2023-07-30T12:43:53;97292.30;;;28.91;43.68
50011;BME280;35899;50.352;19.390;2023-07-30T12:46:59;97289.20;;;29.00;44.33
50011;BME280;35899;50.352;19.390;2023-07-30T12:52:57;97291.41;;;29.04;43.68
50011;BME280;35899;50.352;19.390;2023-07-30T13:08:44;97282.56;;;28.68;45.32
50011;BME280;35899;50.352;19.390;2023-07-30T13:18:01;97278.31;;;28.07;45.24
50011;BME280;35899;50.352;19.390;2023-07-30T13:30:31;97275.96;;;28.36;46.02
50011;BME280;35899;50.352;19.390;2023-07-30T13:33:39;97272.30;;;28.45;45.53
50011;BME280;35899;50.352;19.390;2023-07-30T13:46:16;97276.67;;;29.59;44.40
50011;BME280;35899;50.352;19.390;2023-07-30T13:49:25;97275.90;;;30.22;43.75
50011;BME280;35899;50.352;19.390;2023-07-30T13:59:12;97266.20;;;32.67;40.32
50011;BME280;35899;50.352;19.390;2023-07-30T14:02:34;97262.90;;;33.33;37.84
50011;BME280;35899;50.352;19.390;2023-07-30T14:05:42;97262.83;;;34.59;37.45
50011;BME280;35899;50.352;19.390;2023-07-30T14:08:53;97260.28;;;36.66;35.76
50011;BME280;35899;50.352;19.390;2023-07-30T14:24:33;97252.85;;;39.71;30.38
50011;BME280;35899;50.352;19.390;2023-07-30T14:27:46;97250.47;;;40.95;29.50
50011;BME280;35899;50.352;19.390;2023-07-30T14:34:41;97252.01;;;41.38;28.21
50011;BME280;35899;50.352;19.390;2023-07-30T14:41:04;97254.08;;;42.23;26.92
50011;BME280;35899;50.352;19.390;2023-07-30T14:48:01;97248.08;;;39.89;28.24
50011;BME280;35899;50.352;19.390;2023-07-30T14:57:55;97235.09;;;36.30;30.86
50011;BME280;35899;50.352;19.390;2023-07-30T15:04:10;97233.83;;;33.89;32.45
50011;BME280;35899;50.352;19.390;2023-07-30T15:22:53;97229.80;;;41.91;27.90
50011;BME280;35899;50.352;19.390;2023-07-30T15:26:01;97227.10;;;42.74;25.46
50011;BME280;35899;50.352;19.390;2023-07-30T15:29:08;97224.52;;;43.38;26.04
50011;BME280;35899;50.352;19.390;2023-07-30T15:35:22;97223.09;;;40.67;26.15
50011;BME280;35899;50.352;19.390;2023-07-30T15:47:48;97225.51;;;33.69;31.89
50011;BME280;35899;50.352;19.390;2023-07-30T15:50:56;97222.30;;;32.68;33.22
50011;BME280;35899;50.352;19.390;2023-07-30T16:00:41;97221.89;;;30.23;36.75
50011;BME280;35899;50.352;19.390;2023-07-30T16:03:49;97218.54;;;29.58;37.98
50011;BME280;35899;50.352;19.390;2023-07-30T16:13:03;97220.58;;;27.88;40.65
50011;BME280;35899;50.352;19.390;2023-07-30T16:19:17;97228.23;;;26.83;42.72
50011;BME280;35899;50.352;19.390;2023-07-30T16:25:25;97230.67;;;26.21;44.94
50011;BME280;35899;50.352;19.390;2023-07-30T16:28:32;97228.40;;;26.03;45.65
50011;BME280;35899;50.352;19.390;2023-07-30T16:31:14;97235.48;;;25.87;46.83
50011;BME280;35899;50.352;19.390;2023-07-30T16:37:27;97253.63;;;24.99;52.51
50011;BME280;35899;50.352;19.390;2023-07-30T16:40:18;97244.70;;;24.09;54.72
50011;BME280;35899;50.352;19.390;2023-07-30T16:43:26;97240.10;;;23.58;57.15
50011;BME280;35899;50.352;19.390;2023-07-30T16:46:13;97241.59;;;23.16;59.71
50011;BME280;35899;50.352;19.390;2023-07-30T16:49:23;97245.65;;;23.02;62.99
50011;BME280;35899;50.352;19.390;2023-07-30T16:55:40;97261.66;;;22.91;66.61
50011;BME280;35899;50.352;19.390;2023-07-30T16:58:43;97267.11;;;22.88;67.43
50011;BME280;35899;50.352;19.390;2023-07-30T17:08:54;97290.62;;;22.40;69.04
50011;BME280;35899;50.352;19.390;2023-07-30T17:12:12;97292.50;;;22.31;69.45
50011;BME280;35899;50.352;19.390;2023-07-30T17:18:39;97299.38;;;22.17;71.40
50011;BME280;35899;50.352;19.390;2023-07-30T17:21:37;97312.31;;;22.12;71.96
50011;BME280;35899;50.352;19.390;2023-07-30T17:24:45;97310.15;;;22.02;71.58
50011;BME280;35899;50.352;19.390;2023-07-30T17:27:30;97313.33;;;21.88;72.11
50011;BME280;35899;50.352;19.390;2023-07-30T17:30:17;97320.95;;;21.78;72.19
50011;BME280;35899;50.352;19.390;2023-07-30T17:33:10;97323.91;;;21.71;72.67
50011;BME280;35899;50.352;19.390;2023-07-30T17:35:51;97326.19;;;21.65;72.93
50011;BME280;35899;50.352;19.390;2023-07-30T17:41:10;97329.20;;;21.50;73.14
50011;BME280;35899;50.352;19.390;2023-07-30T17:47:03;97339.02;;;21.33;73.88
50011;BME280;35899;50.352;19.390;2023-07-30T17:49:43;97348.23;;;21.22;74.27
50011;BME280;35899;50.352;19.390;2023-07-30T17:52:32;97352.52;;;21.10;74.41
50011;BME280;35899;50.352;19.390;2023-07-30T17:55:05;97353.19;;;21.03;74.65
50011;BME280;35899;50.352;19.390;2023-07-30T17:57:45;97349.56;;;20.96;74.60
50011;BME280;35899;50.352;19.390;2023-07-30T18:00:23;97350.88;;;20.93;75.74
50011;BME280;35899;50.352;19.390;2023-07-30T18:03:04;97359.44;;;20.93;76.37
50011;BME280;35899;50.352;19.390;2023-07-30T18:08:27;97368.05;;;20.82;76.83
50011;BME280;35899;50.352;19.390;2023-07-30T18:10:57;97368.97;;;20.76;76.84
50011;BME280;35899;50.352;19.390;2023-07-30T18:13:29;97368.48;;;20.68;76.87
50011;BME280;35899;50.352;19.390;2023-07-30T18:18:45;97357.56;;;20.61;77.60
50011;BME280;35899;50.352;19.390;2023-07-30T18:21:29;97346.17;;;20.60;78.22
50011;BME280;35899;50.352;19.390;2023-07-30T18:24:14;97344.04;;;20.58;79.06
50011;BME280;35899;50.352;19.390;2023-07-30T18:26:56;97345.80;;;20.57;79.53
50011;BME280;35899;50.352;19.390;2023-07-30T18:29:25;97340.81;;;20.57;80.17
50011;BME280;35899;50.352;19.390;2023-07-30T18:35:12;97337.38;;;20.51;80.21
50011;BME280;35899;50.352;19.390;2023-07-30T18:37:41;97337.82;;;20.43;80.42
50011;BME280;35899;50.352;19.390;2023-07-30T18:40:34;97334.56;;;20.36;80.83
50011;BME280;35899;50.352;19.390;2023-07-30T18:43:12;97332.55;;;20.29;81.37
50011;BME280;35899;50.352;19.390;2023-07-30T18:45:50;97334.35;;;20.22;81.46
50011;BME280;35899;50.352;19.390;2023-07-30T18:48:41;97338.02;;;20.17;82.27
50011;BME280;35899;50.352;19.390;2023-07-30T18:51:23;97337.77;;;20.15;83.12
50011;BME280;35899;50.352;19.390;2023-07-30T18:53:55;97336.73;;;20.12;83.42
50011;BME280;35899;50.352;19.390;2023-07-30T18:56:35;97337.80;;;20.06;83.32
50011;BME280;35899;50.352;19.390;2023-07-30T19:02:16;97336.52;;;19.90;83.47
50011;BME280;35899;50.352;19.390;2023-07-30T19:04:48;97344.58;;;19.81;83.35
50011;BME280;35899;50.352;19.390;2023-07-30T19:07:19;97348.31;;;19.67;82.68
50011;BME280;35899;50.352;19.390;2023-07-30T19:09:49;97344.43;;;19.52;82.81
50011;BME280;35899;50.352;19.390;2023-07-30T19:12:18;97344.80;;;19.40;83.03
50011;BME280;35899;50.352;19.390;2023-07-30T19:14:48;97347.45;;;19.30;83.49
50011;BME280;35899;50.352;19.390;2023-07-30T19:17:20;97352.05;;;19.25;83.99
50011;BME280;35899;50.352;19.390;2023-07-30T19:22:31;97367.77;;;19.23;85.43
50011;BME280;35899;50.352;19.390;2023-07-30T19:24:58;97372.39;;;19.21;85.79
50011;BME280;35899;50.352;19.390;2023-07-30T19:27:29;97368.82;;;19.19;86.10
50011;BME280;35899;50.352;19.390;2023-07-30T19:29:59;97367.29;;;19.17;86.42
50011;BME280;35899;50.352;19.390;2023-07-30T19:32:34;97366.91;;;19.15;86.92
50011;BME280;35899;50.352;19.390;2023-07-30T19:35:14;97365.29;;;19.12;87.12
50011;BME280;35899;50.352;19.390;2023-07-30T19:37:40;97365.30;;;19.11;87.48
50011;BME280;35899;50.352;19.390;2023-07-30T19:40:08;97365.44;;;19.08;87.78
50011;BME280;35899;50.352;19.390;2023-07-30T19:42:42;97367.34;;;19.04;87.77
50011;BME280;35899;50.352;19.390;2023-07-30T19:45:10;97368.65;;;18.98;87.97
50011;BME280;35899;50.352;19.390;2023-07-30T19:48:01;97370.23;;;18.93;87.95
50011;BME280;35899;50.352;19.390;2023-07-30T19:50:39;97380.88;;;18.88;87.99
50011;BME280;35899;50.352;19.390;2023-07-30T19:53:30;97384.53;;;18.78;87.49
50011;BME280;35899;50.352;19.390;2023-07-30T19:56:00;97384.46;;;18.71;87.48
50011;BME280;35899;50.352;19.390;2023-07-30T19:58:47;97386.85;;;18.65;88.02
50011;BME280;35899;50.352;19.390;2023-07-30T20:01:15;97391.02;;;18.61;88.09
50011;BME280;35899;50.352;19.390;2023-07-30T20:06:36;97392.73;;;18.55;88.92
50011;BME280;35899;50.352;19.390;2023-07-30T20:09:08;97393.75;;;18.54;88.92
50011;BME280;35899;50.352;19.390;2023-07-30T20:11:36;97396.95;;;18.52;89.03